sensor_id;sensor_type;location;lat;lon;timestamp;P1;durP1;ratioP1;P2;durP2;ratioP2
545;SDS011;259;53.304;9.816;2023-06-22T00:00:50;3.40;;;3.10;;
545;SDS011;259;53.304;9.816;2023-06-22T00:03:17;3.07;;;2.87;;
545;SDS011;259;53.304;9.816;2023-06-22T00:05:45;2.80;;;2.70;;
545;SDS011;259;53.304;9.816;2023-06-22T00:08:12;2.87;;;2.67;;
545;SDS011;259;53.304;9.816;2023-06-22T00:10:38;3.20;;;3.00;;
545;SDS011;259;53.304;9.816;2023-06-22T00:13:05;3.60;;;2.57;;
545;SDS011;259;53.304;9.816;2023-06-22T00:15:32;2.70;;;2.50;;
545;SDS011;259;53.304;9.816;2023-06-22T00:17:58;3.00;;;2.80;;
545;SDS011;259;53.304;9.816;2023-06-22T00:20:24;3.13;;;2.93;;
545;SDS011;259;53.304;9.816;2023-06-22T00:22:54;2.73;;;2.53;;
545;SDS011;259;53.304;9.816;2023-06-22T00:25:21;3.60;;;3.40;;
545;SDS011;259;53.304;9.816;2023-06-22T00:27:47;2.97;;;2.77;;
545;SDS011;259;53.304;9.816;2023-06-22T00:30:13;2.80;;;2.70;;
545;SDS011;259;53.304;9.816;2023-06-22T00:32:43;3.20;;;2.87;;
545;SDS011;259;53.304;9.816;2023-06-22T00:35:10;2.50;;;2.40;;
545;SDS011;259;53.304;9.816;2023-06-22T00:37:37;2.77;;;2.57;;
545;SDS011;259;53.304;9.816;2023-06-22T00:40:05;2.50;;;2.40;;
545;SDS011;259;53.304;9.816;2023-06-22T00:42:34;2.63;;;2.43;;
545;SDS011;259;53.304;9.816;2023-06-22T00:44:59;2.20;;;2.10;;
545;SDS011;259;53.304;9.816;2023-06-22T00:47:25;2.60;;;2.50;;
545;SDS011;259;53.304;9.816;2023-06-22T00:49:52;2.97;;;2.77;;
545;SDS011;259;53.304;9.816;2023-06-22T00:52:19;2.67;;;2.57;;
545;SDS011;259;53.304;9.816;2023-06-22T00:54:47;2.60;;;2.47;;
545;SDS011;259;53.304;9.816;2023-06-22T00:57:14;2.70;;;2.50;;
545;SDS011;259;53.304;9.816;2023-06-22T00:59:43;3.60;;;3.30;;
545;SDS011;259;53.304;9.816;2023-06-22T01:02:10;2.83;;;2.63;;
545;SDS011;259;53.304;9.816;2023-06-22T01:04:37;2.53;;;2.40;;
545;SDS011;259;53.304;9.816;2023-06-22T01:10:06;2.33;;;2.23;;
545;SDS011;259;53.304;9.816;2023-06-22T01:12:51;3.00;;;2.80;;
545;SDS011;259;53.304;9.816;2023-06-22T01:18:01;2.57;;;2.47;;
545;SDS011;259;53.304;9.816;2023-06-22T01:20:30;2.97;;;2.77;;
545;SDS011;259;53.304;9.816;2023-06-22T01:23:16;2.60;;;2.40;;
545;SDS011;259;53.304;9.816;2023-06-22T01:25:47;3.00;;;2.80;;
545;SDS011;259;53.304;9.816;2023-06-22T01:31:19;2.80;;;2.70;;
545;SDS011;259;53.304;9.816;2023-06-22T01:33:50;2.80;;;2.70;;
545;SDS011;259;53.304;9.816;2023-06-22T01:36:19;3.00;;;2.80;;
545;SDS011;259;53.304;9.816;2023-06-22T01:38:47;2.67;;;2.57;;
545;SDS011;259;53.304;9.816;2023-06-22T01:41:13;2.63;;;2.53;;
545;SDS011;259;53.304;9.816;2023-06-22T01:43:41;2.43;;;2.23;;
545;SDS011;259;53.304;9.816;2023-06-22T01:46:07;3.00;;;2.80;;
545;SDS011;259;53.304;9.816;2023-06-22T01:48:34;2.90;;;2.80;;
545;SDS011;259;53.304;9.816;2023-06-22T01:50:59;2.60;;;2.40;;
545;SDS011;259;53.304;9.816;2023-06-22T01:53:26;2.67;;;2.47;;
545;SDS011;259;53.304;9.816;2023-06-22T01:55:51;3.13;;;2.93;;
545;SDS011;259;53.304;9.816;2023-06-22T01:58:17;3.20;;;3.00;;
545;SDS011;259;53.304;9.816;2023-06-22T02:00:50;2.87;;;2.77;;
545;SDS011;259;53.304;9.816;2023-06-22T02:03:23;2.67;;;2.47;;
545;SDS011;259;53.304;9.816;2023-06-22T02:06:05;3.20;;;3.00;;
545;SDS011;259;53.304;9.816;2023-06-22T02:08:38;2.80;;;2.60;;
545;SDS011;259;53.304;9.816;2023-06-22T02:11:07;2.40;;;2.30;;
545;SDS011;259;53.304;9.816;2023-06-22T02:13:36;2.50;;;2.30;;
545;SDS011;259;53.304;9.816;2023-06-22T02:16:02;2.97;;;2.77;;
545;SDS011;259;53.304;9.816;2023-06-22T02:18:29;3.00;;;2.80;;
545;SDS011;259;53.304;9.816;2023-06-22T02:20:54;3.40;;;3.10;;
545;SDS011;259;53.304;9.816;2023-06-22T02:23:20;3.03;;;2.83;;
545;SDS011;259;53.304;9.816;2023-06-22T02:25:46;3.03;;;2.83;;
545;SDS011;259;53.304;9.816;2023-06-22T02:28:11;2.50;;;2.40;;
545;SDS011;259;53.304;9.816;2023-06-22T02:30:37;2.90;;;2.70;;
545;SDS011;259;53.304;9.816;2023-06-22T02:33:03;2.83;;;2.63;;
545;SDS011;259;53.304;9.816;2023-06-22T02:35:29;2.80;;;2.60;;
545;SDS011;259;53.304;9.816;2023-06-22T02:37:56;2.93;;;2.73;;
545;SDS011;259;53.304;9.816;2023-06-22T02:40:24;2.97;;;2.77;;
545;SDS011;259;53.304;9.816;2023-06-22T02:42:50;3.60;;;2.83;;
545;SDS011;259;53.304;9.816;2023-06-22T02:45:16;2.67;;;2.27;;
545;SDS011;259;53.304;9.816;2023-06-22T02:47:41;2.63;;;2.53;;
545;SDS011;259;53.304;9.816;2023-06-22T02:50:07;3.30;;;3.10;;
545;SDS011;259;53.304;9.816;2023-06-22T02:52:33;3.40;;;3.20;;
545;SDS011;259;53.304;9.816;2023-06-22T02:54:59;3.20;;;3.00;;
545;SDS011;259;53.304;9.816;2023-06-22T02:57:25;2.70;;;2.60;;
545;SDS011;259;53.304;9.816;2023-06-22T02:59:51;4.20;;;3.83;;
545;SDS011;259;53.304;9.816;2023-06-22T03:02:16;3.57;;;3.27;;
545;SDS011;259;53.304;9.816;2023-06-22T03:04:42;3.57;;;3.13;;
545;SDS011;259;53.304;9.816;2023-06-22T03:07:09;3.57;;;3.37;;
545;SDS011;259;53.304;9.816;2023-06-22T03:09:34;3.13;;;2.93;;
545;SDS011;259;53.304;9.816;2023-06-22T03:12:00;3.07;;;2.87;;
545;SDS011;259;53.304;9.816;2023-06-22T03:14:27;3.50;;;3.23;;
545;SDS011;259;53.304;9.816;2023-06-22T03:16:52;3.53;;;3.27;;
545;SDS011;259;53.304;9.816;2023-06-22T03:19:18;4.17;;;3.77;;
545;SDS011;259;53.304;9.816;2023-06-22T03:21:46;3.50;;;3.20;;
545;SDS011;259;53.304;9.816;2023-06-22T03:24:12;3.07;;;2.87;;
545;SDS011;259;53.304;9.816;2023-06-22T03:26:37;3.03;;;2.80;;
545;SDS011;259;53.304;9.816;2023-06-22T03:29:03;3.53;;;3.23;;
545;SDS011;259;53.304;9.816;2023-06-22T03:31:29;3.50;;;3.30;;
545;SDS011;259;53.304;9.816;2023-06-22T03:33:54;3.30;;;3.00;;
545;SDS011;259;53.304;9.816;2023-06-22T03:36:20;3.30;;;3.03;;
545;SDS011;259;53.304;9.816;2023-06-22T03:38:48;3.30;;;3.10;;
545;SDS011;259;53.304;9.816;2023-06-22T03:41:14;4.20;;;3.23;;
545;SDS011;259;53.304;9.816;2023-06-22T03:43:41;3.20;;;3.00;;
545;SDS011;259;53.304;9.816;2023-06-22T03:46:06;3.80;;;3.57;;
545;SDS011;259;53.304;9.816;2023-06-22T03:48:32;3.23;;;3.03;;
545;SDS011;259;53.304;9.816;2023-06-22T03:51:01;3.77;;;3.43;;
545;SDS011;259;53.304;9.816;2023-06-22T03:53:30;3.50;;;3.30;;
545;SDS011;259;53.304;9.816;2023-06-22T03:55:55;2.73;;;2.57;;
545;SDS011;259;53.304;9.816;2023-06-22T03:58:21;3.40;;;3.10;;
545;SDS011;259;53.304;9.816;2023-06-22T04:00:47;3.67;;;3.40;;
545;SDS011;259;53.304;9.816;2023-06-22T04:03:15;3.20;;;2.90;;
545;SDS011;259;53.304;9.816;2023-06-22T04:05:43;3.40;;;3.10;;
545;SDS011;259;53.304;9.816;2023-06-22T04:08:09;3.80;;;3.50;;
545;SDS011;259;53.304;9.816;2023-06-22T04:10:34;3.57;;;3.27;;
545;SDS011;259;53.304;9.816;2023-06-22T04:13:00;2.97;;;2.77;;
545;SDS011;259;53.304;9.816;2023-06-22T04:15:26;3.20;;;3.00;;
545;SDS011;259;53.304;9.816;2023-06-22T04:17:52;3.13;;;2.93;;
545;SDS011;259;53.304;9.816;2023-06-22T04:20:19;3.37;;;3.07;;
545;SDS011;259;53.304;9.816;2023-06-22T04:22:45;3.77;;;3.47;;
545;SDS011;259;53.304;9.816;2023-06-22T04:25:11;3.00;;;2.80;;
545;SDS011;259;53.304;9.816;2023-06-22T04:27:36;2.97;;;2.77;;
545;SDS011;259;53.304;9.816;2023-06-22T04:30:05;3.33;;;3.03;;
545;SDS011;259;53.304;9.816;2023-06-22T04:32:35;3.63;;;3.40;;
545;SDS011;259;53.304;9.816;2023-06-22T04:35:04;3.70;;;3.40;;
545;SDS011;259;53.304;9.816;2023-06-22T04:37:31;3.40;;;3.10;;
545;SDS011;259;53.304;9.816;2023-06-22T04:39:57;3.50;;;3.30;;
545;SDS011;259;53.304;9.816;2023-06-22T04:42:24;3.80;;;3.50;;
545;SDS011;259;53.304;9.816;2023-06-22T04:44:53;3.63;;;3.33;;
545;SDS011;259;53.304;9.816;2023-06-22T04:47:19;3.37;;;3.17;;
545;SDS011;259;53.304;9.816;2023-06-22T04:49:45;4.53;;;3.47;;
545;SDS011;259;53.304;9.816;2023-06-22T04:52:12;3.47;;;3.17;;
545;SDS011;259;53.304;9.816;2023-06-22T04:54:39;4.47;;;4.07;;
545;SDS011;259;53.304;9.816;2023-06-22T04:57:13;3.40;;;3.20;;
545;SDS011;259;53.304;9.816;2023-06-22T04:59:40;3.67;;;3.47;;
545;SDS011;259;53.304;9.816;2023-06-22T05:02:06;3.87;;;3.57;;
545;SDS011;259;53.304;9.816;2023-06-22T05:04:33;3.10;;;2.80;;
545;SDS011;259;53.304;9.816;2023-06-22T05:07:01;3.27;;;3.07;;
545;SDS011;259;53.304;9.816;2023-06-22T05:09:27;3.60;;;3.30;;
545;SDS011;259;53.304;9.816;2023-06-22T05:11:54;4.10;;;3.80;;
545;SDS011;259;53.304;9.816;2023-06-22T05:14:21;3.40;;;3.10;;
545;SDS011;259;53.304;9.816;2023-06-22T05:16:48;3.30;;;3.10;;
545;SDS011;259;53.304;9.816;2023-06-22T05:19:14;3.00;;;2.80;;
545;SDS011;259;53.304;9.816;2023-06-22T05:21:39;3.47;;;3.20;;
545;SDS011;259;53.304;9.816;2023-06-22T05:24:05;2.87;;;2.67;;
545;SDS011;259;53.304;9.816;2023-06-22T05:26:32;3.37;;;3.17;;
545;SDS011;259;53.304;9.816;2023-06-22T05:28:59;3.77;;;3.57;;
545;SDS011;259;53.304;9.816;2023-06-22T05:31:27;3.50;;;3.20;;
545;SDS011;259;53.304;9.816;2023-06-22T05:33:54;4.30;;;3.90;;
545;SDS011;259;53.304;9.816;2023-06-22T05:36:21;3.97;;;3.67;;
545;SDS011;259;53.304;9.816;2023-06-22T05:38:50;3.73;;;3.47;;
545;SDS011;259;53.304;9.816;2023-06-22T05:41:17;4.10;;;3.80;;
545;SDS011;259;53.304;9.816;2023-06-22T05:43:43;3.50;;;3.30;;
545;SDS011;259;53.304;9.816;2023-06-22T05:46:09;3.10;;;2.90;;
545;SDS011;259;53.304;9.816;2023-06-22T05:48:35;3.93;;;3.50;;
545;SDS011;259;53.304;9.816;2023-06-22T05:51:00;3.83;;;3.53;;
545;SDS011;259;53.304;9.816;2023-06-22T05:53:26;3.93;;;3.63;;
545;SDS011;259;53.304;9.816;2023-06-22T05:55:52;3.33;;;3.10;;
545;SDS011;259;53.304;9.816;2023-06-22T05:58:18;3.33;;;3.13;;
545;SDS011;259;53.304;9.816;2023-06-22T06:00:43;3.77;;;3.50;;
545;SDS011;259;53.304;9.816;2023-06-22T06:03:09;3.57;;;3.27;;
545;SDS011;259;53.304;9.816;2023-06-22T06:05:35;4.00;;;3.70;;
545;SDS011;259;53.304;9.816;2023-06-22T06:08:02;3.40;;;3.20;;
545;SDS011;259;53.304;9.816;2023-06-22T06:10:30;3.07;;;2.83;;
545;SDS011;259;53.304;9.816;2023-06-22T06:12:57;3.03;;;2.80;;
545;SDS011;259;53.304;9.816;2023-06-22T06:15:23;3.47;;;3.13;;
545;SDS011;259;53.304;9.816;2023-06-22T06:17:49;3.40;;;3.20;;
545;SDS011;259;53.304;9.816;2023-06-22T06:20:20;3.00;;;2.80;;
545;SDS011;259;53.304;9.816;2023-06-22T06:22:48;3.07;;;2.87;;
545;SDS011;259;53.304;9.816;2023-06-22T06:25:15;3.03;;;2.83;;
545;SDS011;259;53.304;9.816;2023-06-22T06:27:44;3.20;;;3.00;;
545;SDS011;259;53.304;9.816;2023-06-22T06:30:11;3.53;;;3.33;;
545;SDS011;259;53.304;9.816;2023-06-22T06:32:39;3.17;;;2.90;;
545;SDS011;259;53.304;9.816;2023-06-22T06:35:05;3.40;;;3.10;;
545;SDS011;259;53.304;9.816;2023-06-22T06:37:36;2.80;;;2.60;;
545;SDS011;259;53.304;9.816;2023-06-22T06:40:04;2.67;;;2.57;;
545;SDS011;259;53.304;9.816;2023-06-22T06:42:35;4.17;;;3.10;;
545;SDS011;259;53.304;9.816;2023-06-22T06:45:04;3.40;;;3.20;;
545;SDS011;259;53.304;9.816;2023-06-22T06:47:30;3.90;;;3.47;;
545;SDS011;259;53.304;9.816;2023-06-22T06:49:56;4.93;;;3.20;;
545;SDS011;259;53.304;9.816;2023-06-22T06:52:21;3.90;;;3.07;;
545;SDS011;259;53.304;9.816;2023-06-22T06:54:48;3.70;;;3.40;;
545;SDS011;259;53.304;9.816;2023-06-22T06:57:13;3.80;;;3.50;;
545;SDS011;259;53.304;9.816;2023-06-22T06:59:40;4.87;;;3.10;;
545;SDS011;259;53.304;9.816;2023-06-22T07:02:06;3.33;;;3.00;;
545;SDS011;259;53.304;9.816;2023-06-22T07:04:32;3.50;;;3.20;;
545;SDS011;259;53.304;9.816;2023-06-22T07:06:58;3.70;;;3.40;;
545;SDS011;259;53.304;9.816;2023-06-22T07:09:26;3.20;;;2.90;;
545;SDS011;259;53.304;9.816;2023-06-22T07:11:52;3.10;;;2.90;;
545;SDS011;259;53.304;9.816;2023-06-22T07:14:18;3.10;;;2.90;;
545;SDS011;259;53.304;9.816;2023-06-22T07:16:43;5.30;;;2.73;;
545;SDS011;259;53.304;9.816;2023-06-22T07:19:11;3.93;;;3.53;;
545;SDS011;259;53.304;9.816;2023-06-22T07:21:38;3.30;;;3.00;;
545;SDS011;259;53.304;9.816;2023-06-22T07:24:04;4.53;;;3.50;;
545;SDS011;259;53.304;9.816;2023-06-22T07:26:31;8.53;;;4.20;;
545;SDS011;259;53.304;9.816;2023-06-22T07:28:57;4.30;;;3.73;;
545;SDS011;259;53.304;9.816;2023-06-22T07:31:24;11.70;;;4.20;;
545;SDS011;259;53.304;9.816;2023-06-22T07:33:50;8.10;;;4.10;;
545;SDS011;259;53.304;9.816;2023-06-22T07:36:16;8.40;;;4.17;;
545;SDS011;259;53.304;9.816;2023-06-22T07:38:43;8.43;;;4.00;;
545;SDS011;259;53.304;9.816;2023-06-22T07:41:09;5.90;;;3.60;;
545;SDS011;259;53.304;9.816;2023-06-22T07:43:34;4.87;;;3.57;;
545;SDS011;259;53.304;9.816;2023-06-22T07:46:02;7.33;;;4.13;;
545;SDS011;259;53.304;9.816;2023-06-22T07:48:29;4.97;;;3.83;;
545;SDS011;259;53.304;9.816;2023-06-22T07:50:55;5.80;;;3.90;;
545;SDS011;259;53.304;9.816;2023-06-22T07:53:20;4.10;;;3.80;;
545;SDS011;259;53.304;9.816;2023-06-22T07:55:49;4.70;;;3.80;;
545;SDS011;259;53.304;9.816;2023-06-22T07:58:15;7.23;;;3.50;;
545;SDS011;259;53.304;9.816;2023-06-22T08:00:43;6.83;;;3.90;;
545;SDS011;259;53.304;9.816;2023-06-22T08:03:09;4.10;;;3.73;;
545;SDS011;259;53.304;9.816;2023-06-22T08:05:35;4.00;;;3.60;;
545;SDS011;259;53.304;9.816;2023-06-22T08:08:00;4.07;;;3.60;;
545;SDS011;259;53.304;9.816;2023-06-22T08:10:26;4.07;;;3.73;;
545;SDS011;259;53.304;9.816;2023-06-22T08:12:52;4.50;;;3.33;;
545;SDS011;259;53.304;9.816;2023-06-22T08:15:18;3.80;;;3.40;;
545;SDS011;259;53.304;9.816;2023-06-22T08:17:44;4.03;;;3.60;;
545;SDS011;259;53.304;9.816;2023-06-22T08:20:13;4.70;;;3.87;;
545;SDS011;259;53.304;9.816;2023-06-22T08:22:40;3.60;;;3.40;;
545;SDS011;259;53.304;9.816;2023-06-22T08:25:07;3.33;;;3.13;;
545;SDS011;259;53.304;9.816;2023-06-22T08:27:33;3.50;;;3.20;;
545;SDS011;259;53.304;9.816;2023-06-22T08:30:02;4.53;;;3.40;;
545;SDS011;259;53.304;9.816;2023-06-22T08:32:28;3.33;;;3.03;;
545;SDS011;259;53.304;9.816;2023-06-22T08:34:55;4.20;;;3.07;;
545;SDS011;259;53.304;9.816;2023-06-22T08:37:22;3.00;;;2.80;;
545;SDS011;259;53.304;9.816;2023-06-22T08:39:56;4.90;;;3.40;;
545;SDS011;259;53.304;9.816;2023-06-22T08:42:23;3.33;;;3.13;;
545;SDS011;259;53.304;9.816;2023-06-22T08:44:50;3.77;;;3.47;;
545;SDS011;259;53.304;9.816;2023-06-22T08:47:16;3.33;;;2.90;;
545;SDS011;259;53.304;9.816;2023-06-22T08:49:42;3.30;;;3.10;;
545;SDS011;259;53.304;9.816;2023-06-22T08:52:07;3.40;;;3.20;;
545;SDS011;259;53.304;9.816;2023-06-22T08:54:33;3.67;;;3.37;;
545;SDS011;259;53.304;9.816;2023-06-22T08:56:59;3.80;;;3.50;;
545;SDS011;259;53.304;9.816;2023-06-22T08:59:26;3.20;;;2.70;;
545;SDS011;259;53.304;9.816;2023-06-22T09:01:52;3.37;;;3.17;;
545;SDS011;259;53.304;9.816;2023-06-22T09:04:17;3.30;;;3.10;;
545;SDS011;259;53.304;9.816;2023-06-22T09:06:43;3.33;;;3.03;;
545;SDS011;259;53.304;9.816;2023-06-22T09:09:12;2.73;;;2.53;;
545;SDS011;259;53.304;9.816;2023-06-22T09:11:38;3.93;;;3.63;;
545;SDS011;259;53.304;9.816;2023-06-22T09:14:04;3.80;;;3.50;;
545;SDS011;259;53.304;9.816;2023-06-22T09:16:30;3.27;;;2.97;;
545;SDS011;259;53.304;9.816;2023-06-22T09:18:55;3.47;;;3.17;;
545;SDS011;259;53.304;9.816;2023-06-22T09:21:21;3.07;;;2.87;;
545;SDS011;259;53.304;9.816;2023-06-22T09:23:48;3.10;;;2.90;;
545;SDS011;259;53.304;9.816;2023-06-22T09:26:16;3.30;;;3.10;;
545;SDS011;259;53.304;9.816;2023-06-22T09:28:43;3.10;;;2.83;;
545;SDS011;259;53.304;9.816;2023-06-22T09:31:08;3.47;;;3.27;;
545;SDS011;259;53.304;9.816;2023-06-22T09:33:35;3.67;;;3.37;;
545;SDS011;259;53.304;9.816;2023-06-22T09:36:03;4.07;;;3.77;;
545;SDS011;259;53.304;9.816;2023-06-22T09:38:34;4.10;;;3.80;;
545;SDS011;259;53.304;9.816;2023-06-22T09:41:03;3.33;;;3.13;;
545;SDS011;259;53.304;9.816;2023-06-22T09:43:30;4.30;;;3.90;;
545;SDS011;259;53.304;9.816;2023-06-22T09:45:59;3.87;;;3.47;;
545;SDS011;259;53.304;9.816;2023-06-22T09:48:26;3.70;;;3.50;;
545;SDS011;259;53.304;9.816;2023-06-22T09:50:52;3.67;;;3.40;;
545;SDS011;259;53.304;9.816;2023-06-22T09:53:18;4.70;;;3.67;;
545;SDS011;259;53.304;9.816;2023-06-22T09:55:43;5.83;;;3.80;;
545;SDS011;259;53.304;9.816;2023-06-22T09:58:09;3.47;;;3.23;;
545;SDS011;259;53.304;9.816;2023-06-22T10:00:35;3.60;;;3.00;;
545;SDS011;259;53.304;9.816;2023-06-22T10:03:00;4.33;;;4.00;;
545;SDS011;259;53.304;9.816;2023-06-22T10:05:26;4.50;;;4.07;;
545;SDS011;259;53.304;9.816;2023-06-22T10:07:52;3.27;;;3.07;;
545;SDS011;259;53.304;9.816;2023-06-22T10:10:17;4.17;;;3.87;;
545;SDS011;259;53.304;9.816;2023-06-22T10:12:47;3.80;;;3.50;;
545;SDS011;259;53.304;9.816;2023-06-22T10:15:19;7.37;;;4.23;;
545;SDS011;259;53.304;9.816;2023-06-22T10:17:46;5.07;;;3.57;;
545;SDS011;259;53.304;9.816;2023-06-22T10:20:12;6.57;;;4.27;;
545;SDS011;259;53.304;9.816;2023-06-22T10:22:42;4.20;;;3.80;;
545;SDS011;259;53.304;9.816;2023-06-22T10:25:10;4.03;;;3.73;;
545;SDS011;259;53.304;9.816;2023-06-22T10:27:37;4.27;;;3.87;;
545;SDS011;259;53.304;9.816;2023-06-22T10:30:07;4.20;;;3.80;;
545;SDS011;259;53.304;9.816;2023-06-22T10:32:35;4.60;;;4.23;;
545;SDS011;259;53.304;9.816;2023-06-22T10:35:03;4.70;;;4.30;;
545;SDS011;259;53.304;9.816;2023-06-22T10:37:29;3.60;;;3.30;;
545;SDS011;259;53.304;9.816;2023-06-22T10:39:55;4.67;;;4.27;;
545;SDS011;259;53.304;9.816;2023-06-22T10:42:20;4.00;;;3.70;;
545;SDS011;259;53.304;9.816;2023-06-22T10:44:46;4.67;;;4.30;;
545;SDS011;259;53.304;9.816;2023-06-22T10:47:12;5.00;;;4.13;;
545;SDS011;259;53.304;9.816;2023-06-22T10:49:38;5.00;;;4.03;;
545;SDS011;259;53.304;9.816;2023-06-22T10:52:07;4.17;;;3.80;;
545;SDS011;259;53.304;9.816;2023-06-22T10:54:34;4.47;;;4.07;;
545;SDS011;259;53.304;9.816;2023-06-22T10:57:01;4.20;;;3.90;;
545;SDS011;259;53.304;9.816;2023-06-22T10:59:27;4.30;;;4.00;;
545;SDS011;259;53.304;9.816;2023-06-22T11:01:57;4.13;;;3.83;;
545;SDS011;259;53.304;9.816;2023-06-22T11:04:24;4.03;;;3.83;;
545;SDS011;259;53.304;9.816;2023-06-22T11:06:50;4.03;;;3.60;;
545;SDS011;259;53.304;9.816;2023-06-22T11:09:16;4.33;;;3.93;;
545;SDS011;259;53.304;9.816;2023-06-22T11:11:45;4.13;;;3.80;;
545;SDS011;259;53.304;9.816;2023-06-22T11:14:18;4.53;;;4.23;;
545;SDS011;259;53.304;9.816;2023-06-22T11:16:44;4.53;;;4.23;;
545;SDS011;259;53.304;9.816;2023-06-22T11:19:11;4.33;;;4.13;;
545;SDS011;259;53.304;9.816;2023-06-22T11:21:37;4.73;;;4.47;;
545;SDS011;259;53.304;9.816;2023-06-22T11:24:03;4.70;;;4.40;;
545;SDS011;259;53.304;9.816;2023-06-22T11:26:29;4.70;;;4.30;;
545;SDS011;259;53.304;9.816;2023-06-22T11:28:56;5.57;;;5.10;;
545;SDS011;259;53.304;9.816;2023-06-22T11:31:23;5.17;;;4.77;;
545;SDS011;259;53.304;9.816;2023-06-22T11:33:49;4.70;;;4.30;;
545;SDS011;259;53.304;9.816;2023-06-22T11:36:15;3.90;;;3.70;;
545;SDS011;259;53.304;9.816;2023-06-22T11:38:41;5.00;;;4.70;;
545;SDS011;259;53.304;9.816;2023-06-22T11:41:08;4.73;;;4.43;;
545;SDS011;259;53.304;9.816;2023-06-22T11:43:35;5.13;;;4.73;;
545;SDS011;259;53.304;9.816;2023-06-22T11:46:02;4.90;;;4.60;;
545;SDS011;259;53.304;9.816;2023-06-22T11:48:29;4.50;;;4.20;;
545;SDS011;259;53.304;9.816;2023-06-22T11:50:55;4.90;;;4.60;;
545;SDS011;259;53.304;9.816;2023-06-22T11:53:21;4.53;;;4.30;;
545;SDS011;259;53.304;9.816;2023-06-22T11:55:49;5.77;;;5.33;;
545;SDS011;259;53.304;9.816;2023-06-22T11:58:15;4.70;;;4.30;;
545;SDS011;259;53.304;9.816;2023-06-22T12:00:41;4.53;;;4.23;;
545;SDS011;259;53.304;9.816;2023-06-22T12:03:07;5.10;;;4.70;;
545;SDS011;259;53.304;9.816;2023-06-22T12:05:34;5.13;;;4.73;;
545;SDS011;259;53.304;9.816;2023-06-22T12:08:00;5.67;;;5.17;;
545;SDS011;259;53.304;9.816;2023-06-22T12:10:26;5.53;;;5.13;;
545;SDS011;259;53.304;9.816;2023-06-22T12:12:53;5.90;;;5.60;;
545;SDS011;259;53.304;9.816;2023-06-22T12:15:19;5.53;;;5.17;;
545;SDS011;259;53.304;9.816;2023-06-22T12:17:45;5.77;;;5.37;;
545;SDS011;259;53.304;9.816;2023-06-22T12:20:10;5.70;;;5.30;;
545;SDS011;259;53.304;9.816;2023-06-22T12:22:36;6.53;;;6.13;;
545;SDS011;259;53.304;9.816;2023-06-22T12:25:05;5.63;;;5.23;;
545;SDS011;259;53.304;9.816;2023-06-22T12:27:31;5.57;;;5.17;;
545;SDS011;259;53.304;9.816;2023-06-22T12:29:57;6.17;;;5.67;;
545;SDS011;259;53.304;9.816;2023-06-22T12:32:22;5.30;;;5.00;;
545;SDS011;259;53.304;9.816;2023-06-22T12:34:48;6.17;;;5.67;;
545;SDS011;259;53.304;9.816;2023-06-22T12:37:13;6.20;;;5.70;;
545;SDS011;259;53.304;9.816;2023-06-22T12:39:43;6.00;;;5.60;;
545;SDS011;259;53.304;9.816;2023-06-22T12:42:09;6.03;;;5.63;;
545;SDS011;259;53.304;9.816;2023-06-22T12:44:37;6.20;;;5.87;;
545;SDS011;259;53.304;9.816;2023-06-22T12:47:03;6.03;;;5.63;;
545;SDS011;259;53.304;9.816;2023-06-22T12:49:29;6.67;;;6.20;;
545;SDS011;259;53.304;9.816;2023-06-22T12:51:55;6.37;;;5.97;;
545;SDS011;259;53.304;9.816;2023-06-22T12:54:21;6.40;;;5.90;;
545;SDS011;259;53.304;9.816;2023-06-22T12:56:46;6.37;;;5.90;;
545;SDS011;259;53.304;9.816;2023-06-22T12:59:12;6.50;;;6.00;;
545;SDS011;259;53.304;9.816;2023-06-22T13:01:38;6.07;;;5.60;;
545;SDS011;259;53.304;9.816;2023-06-22T13:04:03;6.33;;;5.93;;
545;SDS011;259;53.304;9.816;2023-06-22T13:06:30;5.93;;;5.53;;
545;SDS011;259;53.304;9.816;2023-06-22T13:08:55;6.23;;;5.83;;
545;SDS011;259;53.304;9.816;2023-06-22T13:11:21;6.13;;;5.77;;
545;SDS011;259;53.304;9.816;2023-06-22T13:13:47;6.33;;;5.93;;
545;SDS011;259;53.304;9.816;2023-06-22T13:16:13;6.30;;;5.90;;
545;SDS011;259;53.304;9.816;2023-06-22T13:18:38;6.23;;;5.73;;
545;SDS011;259;53.304;9.816;2023-06-22T13:21:04;6.30;;;5.90;;
545;SDS011;259;53.304;9.816;2023-06-22T13:23:30;6.60;;;6.20;;
545;SDS011;259;53.304;9.816;2023-06-22T13:25:57;5.60;;;5.20;;
545;SDS011;259;53.304;9.816;2023-06-22T13:28:23;6.13;;;5.73;;
545;SDS011;259;53.304;9.816;2023-06-22T13:30:49;5.73;;;5.33;;
545;SDS011;259;53.304;9.816;2023-06-22T13:33:15;5.40;;;5.10;;
545;SDS011;259;53.304;9.816;2023-06-22T13:35:41;6.17;;;5.80;;
545;SDS011;259;53.304;9.816;2023-06-22T13:38:07;5.83;;;5.53;;
545;SDS011;259;53.304;9.816;2023-06-22T13:40:34;6.73;;;6.33;;
545;SDS011;259;53.304;9.816;2023-06-22T13:43:00;5.80;;;5.50;;
545;SDS011;259;53.304;9.816;2023-06-22T13:45:26;6.20;;;5.80;;
545;SDS011;259;53.304;9.816;2023-06-22T13:47:52;6.50;;;6.10;;
545;SDS011;259;53.304;9.816;2023-06-22T13:50:17;6.23;;;5.80;;
545;SDS011;259;53.304;9.816;2023-06-22T13:52:43;6.30;;;5.90;;
545;SDS011;259;53.304;9.816;2023-06-22T13:55:09;5.60;;;5.20;;
545;SDS011;259;53.304;9.816;2023-06-22T13:57:35;6.20;;;5.87;;
545;SDS011;259;53.304;9.816;2023-06-22T14:00:02;5.53;;;5.23;;
545;SDS011;259;53.304;9.816;2023-06-22T14:02:33;6.53;;;6.13;;
545;SDS011;259;53.304;9.816;2023-06-22T14:04:58;6.20;;;5.80;;
545;SDS011;259;53.304;9.816;2023-06-22T14:07:24;6.23;;;5.73;;
545;SDS011;259;53.304;9.816;2023-06-22T14:09:50;5.93;;;5.53;;
545;SDS011;259;53.304;9.816;2023-06-22T14:12:16;6.40;;;6.00;;
545;SDS011;259;53.304;9.816;2023-06-22T14:14:45;6.60;;;6.20;;
545;SDS011;259;53.304;9.816;2023-06-22T14:17:11;5.63;;;5.33;;
545;SDS011;259;53.304;9.816;2023-06-22T14:19:36;6.30;;;5.90;;
545;SDS011;259;53.304;9.816;2023-06-22T14:22:02;5.77;;;5.47;;
545;SDS011;259;53.304;9.816;2023-06-22T14:24:28;5.80;;;5.47;;
545;SDS011;259;53.304;9.816;2023-06-22T14:26:54;6.40;;;6.00;;
545;SDS011;259;53.304;9.816;2023-06-22T14:29:23;6.20;;;5.80;;
545;SDS011;259;53.304;9.816;2023-06-22T14:31:50;6.20;;;5.80;;
545;SDS011;259;53.304;9.816;2023-06-22T14:34:16;6.80;;;6.30;;
545;SDS011;259;53.304;9.816;2023-06-22T14:36:41;6.50;;;6.10;;
545;SDS011;259;53.304;9.816;2023-06-22T14:39:08;6.10;;;5.70;;
545;SDS011;259;53.304;9.816;2023-06-22T14:41:34;6.90;;;6.40;;
545;SDS011;259;53.304;9.816;2023-06-22T14:44:00;6.50;;;6.00;;
545;SDS011;259;53.304;9.816;2023-06-22T14:46:26;7.43;;;6.70;;
545;SDS011;259;53.304;9.816;2023-06-22T14:48:52;6.37;;;5.97;;
545;SDS011;259;53.304;9.816;2023-06-22T14:51:18;7.43;;;6.30;;
545;SDS011;259;53.304;9.816;2023-06-22T14:53:44;6.70;;;6.20;;
545;SDS011;259;53.304;9.816;2023-06-22T14:56:11;6.17;;;5.67;;
545;SDS011;259;53.304;9.816;2023-06-22T14:58:37;6.70;;;6.20;;
545;SDS011;259;53.304;9.816;2023-06-22T15:01:05;6.73;;;6.13;;
545;SDS011;259;53.304;9.816;2023-06-22T15:03:33;6.20;;;5.80;;
545;SDS011;259;53.304;9.816;2023-06-22T15:06:01;6.60;;;6.13;;
545;SDS011;259;53.304;9.816;2023-06-22T15:08:28;6.70;;;6.10;;
545;SDS011;259;53.304;9.816;2023-06-22T15:10:54;6.53;;;6.03;;
545;SDS011;259;53.304;9.816;2023-06-22T15:13:20;5.83;;;5.43;;
545;SDS011;259;53.304;9.816;2023-06-22T15:15:47;6.70;;;6.23;;
545;SDS011;259;53.304;9.816;2023-06-22T15:18:14;7.00;;;6.60;;
545;SDS011;259;53.304;9.816;2023-06-22T15:20:40;6.40;;;6.00;;
545;SDS011;259;53.304;9.816;2023-06-22T15:23:09;7.10;;;6.60;;
545;SDS011;259;53.304;9.816;2023-06-22T15:25:35;6.53;;;6.03;;
545;SDS011;259;53.304;9.816;2023-06-22T15:28:01;6.20;;;5.80;;
545;SDS011;259;53.304;9.816;2023-06-22T15:30:27;5.83;;;5.43;;
545;SDS011;259;53.304;9.816;2023-06-22T15:32:54;6.90;;;6.50;;
545;SDS011;259;53.304;9.816;2023-06-22T15:35:19;6.27;;;5.70;;
545;SDS011;259;53.304;9.816;2023-06-22T15:37:47;5.90;;;5.50;;
545;SDS011;259;53.304;9.816;2023-06-22T15:40:13;6.50;;;6.10;;
545;SDS011;259;53.304;9.816;2023-06-22T15:42:39;6.43;;;6.03;;
545;SDS011;259;53.304;9.816;2023-06-22T15:45:04;7.20;;;6.77;;
545;SDS011;259;53.304;9.816;2023-06-22T15:47:30;6.60;;;6.10;;
545;SDS011;259;53.304;9.816;2023-06-22T15:49:56;6.67;;;6.13;;